createdAt,value
2023-03-20T00:00:36.965Z,1024.4
2023-03-20T00:02:36.668Z,1024.5
2023-03-20T00:04:36.827Z,1024.5
2023-03-20T00:06:36.659Z,1024.6
2023-03-20T00:08:36.711Z,1024.6
2023-03-20T00:10:36.696Z,1024.7
2023-03-20T00:12:36.656Z,1024.7
2023-03-20T00:14:36.614Z,1024.7
2023-03-20T00:16:36.641Z,1024.8
2023-03-20T00:18:36.644Z,1024.8
2023-03-20T00:20:36.791Z,1024.9
2023-03-20T00:22:36.666Z,1024.9
2023-03-20T00:24:36.677Z,1025
2023-03-20T00:26:36.652Z,1025.1
2023-03-20T00:28:36.628Z,1025.2
2023-03-20T00:30:36.683Z,1025.2
2023-03-20T00:32:36.650Z,1025.2
2023-03-20T00:34:36.646Z,1025.2
2023-03-20T00:36:36.611Z,1025.2
2023-03-20T00:38:36.627Z,1025.2
2023-03-20T00:40:36.659Z,1025.2
2023-03-20T00:42:36.615Z,1025.2
2023-03-20T00:44:36.613Z,1025.2
2023-03-20T00:46:36.648Z,1025.3
2023-03-20T00:48:36.609Z,1025.3
2023-03-20T00:50:36.663Z,1025.3
2023-03-20T00:52:36.598Z,1025.3
2023-03-20T00:54:36.611Z,1025.4
2023-03-20T00:56:36.597Z,1025.5
2023-03-20T00:58:36.581Z,1025.5
2023-03-20T01:00:36.633Z,1025.5
2023-03-20T01:02:36.596Z,1025.5
2023-03-20T01:04:36.609Z,1025.5
2023-03-20T01:06:36.683Z,1025.5
2023-03-20T01:08:36.597Z,1025.6
2023-03-20T01:10:36.568Z,1025.6
2023-03-20T01:12:38.079Z,1025.7
2023-03-20T01:14:36.615Z,1025.7
2023-03-20T01:16:36.570Z,1025.7
2023-03-20T01:18:36.582Z,1025.7
2023-03-20T01:20:36.583Z,1025.7
2023-03-20T01:22:36.553Z,1025.7
2023-03-20T01:24:38.180Z,1025.7
2023-03-20T01:26:36.571Z,1025.7
2023-03-20T01:28:36.552Z,1025.7
2023-03-20T01:30:36.518Z,1025.6
2023-03-20T01:32:36.606Z,1025.6
2023-03-20T01:34:36.533Z,1025.6
2023-03-20T01:36:36.536Z,1025.7
2023-03-20T01:38:36.538Z,1025.7
2023-03-20T01:40:36.555Z,1025.7
2023-03-20T01:42:36.533Z,1025.7
2023-03-20T01:44:36.596Z,1025.8
2023-03-20T01:46:36.576Z,1025.8
2023-03-20T01:48:36.516Z,1025.8
2023-03-20T01:50:36.489Z,1025.9
2023-03-20T01:52:36.516Z,1025.9
2023-03-20T01:54:36.558Z,1025.9
2023-03-20T01:56:36.524Z,1026
2023-03-20T01:58:36.534Z,1026
2023-03-20T02:00:36.491Z,1026.1
2023-03-20T02:02:36.495Z,1026.1
2023-03-20T02:04:36.535Z,1026.2
2023-03-20T02:06:36.563Z,1026.2
2023-03-20T02:08:36.502Z,1026.2
2023-03-20T02:10:36.484Z,1026.3
2023-03-20T02:12:36.481Z,1026.3
2023-03-20T02:14:36.464Z,1026.4
2023-03-20T02:16:36.504Z,1026.4
2023-03-20T02:18:36.531Z,1026.4
2023-03-20T02:20:36.516Z,1026.5
2023-03-20T02:22:36.525Z,1026.4
2023-03-20T02:24:36.474Z,1026.4
2023-03-20T02:26:36.470Z,1026.5
2023-03-20T02:28:36.466Z,1026.5
2023-03-20T02:30:36.494Z,1026.4
2023-03-20T02:32:36.476Z,1026.4
2023-03-20T02:34:36.456Z,1026.4
2023-03-20T02:36:36.513Z,1026.5
2023-03-20T02:38:36.447Z,1026.5
2023-03-20T02:40:36.450Z,1026.5
2023-03-20T02:42:36.457Z,1026.4
2023-03-20T02:44:36.590Z,1026.5
2023-03-20T02:46:36.797Z,1026.5
2023-03-20T02:48:36.500Z,1026.6
2023-03-20T02:50:36.443Z,1026.5
2023-03-20T02:52:36.409Z,1026.5
2023-03-20T02:54:36.427Z,1026.5
2023-03-20T02:56:36.422Z,1026.5
2023-03-20T02:58:36.454Z,1026.5
2023-03-20T03:00:36.421Z,1026.6
2023-03-20T03:02:36.491Z,1026.6
2023-03-20T03:04:36.414Z,1026.6
2023-03-20T03:06:36.455Z,1026.6
2023-03-20T03:08:36.434Z,1026.6
2023-03-20T03:10:36.448Z,1026.6
2023-03-20T03:12:36.424Z,1026.6
2023-03-20T03:14:36.396Z,1026.6
2023-03-20T03:16:36.386Z,1026.5
2023-03-20T03:18:36.398Z,1026.5
2023-03-20T03:20:36.390Z,1026.5
2023-03-20T03:22:36.537Z,1026.6
2023-03-20T03:24:41.094Z,1026.6
2023-03-20T03:26:36.398Z,1026.6
2023-03-20T03:28:36.405Z,1026.6
2023-03-20T03:30:36.487Z,1026.6
2023-03-20T03:32:36.527Z,1026.7
2023-03-20T03:34:36.363Z,1026.6
2023-03-20T03:36:36.365Z,1026.6
2023-03-20T03:38:36.360Z,1026.6
2023-03-20T03:40:36.375Z,1026.6
2023-03-20T03:42:36.362Z,1026.7
2023-03-20T03:44:36.356Z,1026.7
2023-03-20T03:46:36.469Z,1026.7
2023-03-20T03:48:36.366Z,1026.6
2023-03-20T03:50:36.373Z,1026.6
2023-03-20T03:52:36.375Z,1026.6
2023-03-20T03:54:36.395Z,1026.6
2023-03-20T03:56:36.333Z,1026.6
2023-03-20T03:58:36.341Z,1026.6
2023-03-20T04:00:36.351Z,1026.6
2023-03-20T04:02:36.338Z,1026.6
2023-03-20T04:04:36.446Z,1026.6
2023-03-20T04:06:36.349Z,1026.6
2023-03-20T04:08:36.320Z,1026.6
2023-03-20T04:10:36.330Z,1026.6
2023-03-20T04:12:36.368Z,1026.5
2023-03-20T04:14:36.310Z,1026.5
2023-03-20T04:16:36.318Z,1026.5
2023-03-20T04:18:36.342Z,1026.5
2023-03-20T04:20:36.332Z,1026.5
2023-03-20T04:22:36.319Z,1026.6
2023-03-20T04:24:36.316Z,1026.6
2023-03-20T04:26:36.317Z,1026.6
2023-03-20T04:28:36.287Z,1026.6
2023-03-20T04:30:36.299Z,1026.5
2023-03-20T04:32:36.336Z,1026.5
2023-03-20T04:34:36.317Z,1026.5
2023-03-20T04:36:36.323Z,1026.5
2023-03-20T04:38:36.284Z,1026.5
2023-03-20T04:40:36.311Z,1026.5
2023-03-20T04:42:36.307Z,1026.5
2023-03-20T04:44:36.276Z,1026.5
2023-03-20T04:46:36.321Z,1026.5
2023-03-20T04:48:36.275Z,1026.6
2023-03-20T04:50:36.284Z,1026.7
2023-03-20T04:52:36.295Z,1026.6
2023-03-20T04:54:36.298Z,1026.6
2023-03-20T04:56:36.273Z,1026.6
2023-03-20T04:58:36.283Z,1026.7
2023-03-20T05:00:36.436Z,1026.7
2023-03-20T05:02:36.280Z,1026.7
2023-03-20T05:04:36.302Z,1026.6
2023-03-20T05:06:36.296Z,1026.6
2023-03-20T05:08:36.283Z,1026.6
2023-03-20T05:10:36.306Z,1026.6
2023-03-20T05:12:36.270Z,1026.6
2023-03-20T05:14:36.262Z,1026.6
2023-03-20T05:16:36.336Z,1026.6
2023-03-20T05:18:36.273Z,1026.6
2023-03-20T05:20:36.291Z,1026.6
2023-03-20T05:22:36.259Z,1026.7
2023-03-20T05:24:36.276Z,1026.7
2023-03-20T05:26:38.808Z,1026.7
2023-03-20T05:28:36.275Z,1026.7
2023-03-20T05:30:36.313Z,1026.8
2023-03-20T05:32:36.300Z,1026.8
2023-03-20T05:34:36.222Z,1026.8
2023-03-20T05:36:36.231Z,1026.8
2023-03-20T05:38:36.200Z,1026.8
2023-03-20T05:40:36.207Z,1026.8
2023-03-20T05:42:36.206Z,1026.7
2023-03-20T05:44:36.178Z,1026.8
2023-03-20T05:46:36.373Z,1026.8
2023-03-20T05:48:36.178Z,1026.8
2023-03-20T05:50:36.242Z,1026.9
2023-03-20T05:52:36.322Z,1027
2023-03-20T05:54:36.195Z,1027
2023-03-20T05:56:36.231Z,1026.9
2023-03-20T05:58:36.185Z,1026.9
2023-03-20T06:00:36.188Z,1026.9
2023-03-20T06:02:36.205Z,1026.8
2023-03-20T06:04:36.164Z,1026.8
2023-03-20T06:06:36.185Z,1026.8
2023-03-20T06:08:36.179Z,1026.9
2023-03-20T06:10:36.163Z,1026.9
2023-03-20T06:12:36.169Z,1027
2023-03-20T06:14:36.177Z,1027
2023-03-20T06:16:36.163Z,1027
2023-03-20T06:18:36.139Z,1027
2023-03-20T06:20:36.201Z,1027
2023-03-20T06:22:36.163Z,1027
2023-03-20T06:24:36.159Z,1027
2023-03-20T06:26:36.163Z,1027
2023-03-20T06:28:36.140Z,1027
2023-03-20T06:30:36.173Z,1027
2023-03-20T06:32:36.228Z,1027
2023-03-20T06:34:36.162Z,1027
2023-03-20T06:36:36.119Z,1027
2023-03-20T06:38:36.128Z,1027
2023-03-20T06:40:36.134Z,1027
2023-03-20T06:42:36.162Z,1027
2023-03-20T06:44:36.126Z,1027
2023-03-20T06:46:36.143Z,1026.9
2023-03-20T06:48:36.096Z,1026.9
2023-03-20T06:50:36.140Z,1026.9
2023-03-20T06:52:36.131Z,1026.9
2023-03-20T06:54:36.088Z,1026.9
2023-03-20T06:56:36.104Z,1026.9
2023-03-20T06:58:36.096Z,1026.9
2023-03-20T07:00:36.101Z,1027
2023-03-20T07:02:36.101Z,1027
2023-03-20T07:04:36.179Z,1027
2023-03-20T07:06:36.133Z,1027
2023-03-20T07:08:36.100Z,1026.9
2023-03-20T07:10:36.134Z,1026.9
2023-03-20T07:12:36.134Z,1026.9
2023-03-20T07:14:36.112Z,1026.9
2023-03-20T07:16:36.157Z,1026.9
2023-03-20T07:18:36.133Z,1027
2023-03-20T07:20:36.088Z,1027
2023-03-20T07:22:36.088Z,1027
2023-03-20T07:24:36.055Z,1027
2023-03-20T07:26:36.091Z,1027.1
2023-03-20T07:28:36.107Z,1027.1
2023-03-20T07:30:36.072Z,1027.1
2023-03-20T07:32:37.771Z,1027.2
2023-03-20T07:34:36.108Z,1027.2
2023-03-20T07:36:36.126Z,1027.1
2023-03-20T07:38:36.137Z,1027.2
2023-03-20T07:40:36.095Z,1027.1
2023-03-20T07:42:36.063Z,1027.2
2023-03-20T07:44:36.076Z,1027.3
2023-03-20T07:46:36.041Z,1027.2
2023-03-20T07:48:36.069Z,1027.1
2023-03-20T07:50:36.042Z,1027.1
2023-03-20T07:52:36.052Z,1027.2
2023-03-20T07:54:36.025Z,1027.3
2023-03-20T07:56:36.035Z,1027.3
2023-03-20T07:58:36.088Z,1027.3
2023-03-20T08:00:36.056Z,1027.3
2023-03-20T08:02:36.106Z,1027.2
2023-03-20T08:04:36.121Z,1027.2
2023-03-20T08:06:36.025Z,1027.2
2023-03-20T08:08:36.041Z,1027.3
2023-03-20T08:10:36.017Z,1027.2
2023-03-20T08:12:36.031Z,1027.2
2023-03-20T08:14:36.298Z,1027.3
2023-03-20T08:16:36.047Z,1027.3
2023-03-20T08:18:36.024Z,1027.3
2023-03-20T08:20:36.025Z,1027.3
2023-03-20T08:22:36.045Z,1027.4
2023-03-20T08:24:36.013Z,1027.4
2023-03-20T08:26:35.998Z,1027.4
2023-03-20T08:28:46.879Z,1027.3
2023-03-20T08:30:36.099Z,1027.3
2023-03-20T08:32:36.023Z,1027.3
2023-03-20T08:34:35.986Z,1027.4
2023-03-20T08:36:36.001Z,1027.3
2023-03-20T08:38:36.043Z,1027.2
2023-03-20T08:40:35.982Z,1027.3
2023-03-20T08:42:35.971Z,1027.4
2023-03-20T08:44:35.963Z,1027.4
2023-03-20T08:46:36.044Z,1027.4
2023-03-20T08:48:35.953Z,1027.4
2023-03-20T08:50:35.976Z,1027.4
2023-03-20T08:52:36.032Z,1027.5
2023-03-20T08:54:35.974Z,1027.5
2023-03-20T08:56:35.968Z,1027.6
2023-03-20T08:58:36.026Z,1027.6
2023-03-20T09:00:35.956Z,1027.7
2023-03-20T09:02:36.082Z,1027.7
2023-03-20T09:04:35.980Z,1027.7
2023-03-20T09:06:35.960Z,1027.7
2023-03-20T09:08:35.956Z,1027.7
2023-03-20T09:10:35.932Z,1027.8
2023-03-20T09:12:35.970Z,1027.8
2023-03-20T09:14:36.048Z,1027.8
2023-03-20T09:16:35.991Z,1027.8
2023-03-20T09:18:35.937Z,1027.9
2023-03-20T09:20:36.678Z,1027.9
2023-03-20T09:22:35.952Z,1028
2023-03-20T09:24:35.904Z,1028
2023-03-20T09:26:35.942Z,1028.1
2023-03-20T09:28:35.907Z,1028
2023-03-20T09:30:36.142Z,1028.1
2023-03-20T09:32:35.926Z,1028.1
2023-03-20T09:34:35.929Z,1028.1
2023-03-20T09:36:35.917Z,1028.2
2023-03-20T09:38:35.895Z,1028.2
2023-03-20T09:40:36.121Z,1028.2
2023-03-20T09:42:35.914Z,1028.1
2023-03-20T09:44:35.896Z,1028.1
2023-03-20T09:46:35.922Z,1028.1
2023-03-20T09:48:35.956Z,1028.1
2023-03-20T09:50:36.082Z,1028.1
2023-03-20T09:52:35.925Z,1028.2
2023-03-20T09:54:50.960Z,1028.2
2023-03-20T09:56:35.895Z,1028.2
2023-03-20T09:58:35.887Z,1028.2
2023-03-20T10:00:36.159Z,1028.2
2023-03-20T10:02:35.919Z,1028.2
2023-03-20T10:04:35.890Z,1028.2
2023-03-20T10:06:35.851Z,1028.2
2023-03-20T10:08:35.853Z,1028.2
2023-03-20T10:10:36.142Z,1028.3
2023-03-20T10:12:35.839Z,1028.3
2023-03-20T10:14:35.856Z,1028.3
2023-03-20T10:16:35.966Z,1028.3
2023-03-20T10:18:35.828Z,1028.3
2023-03-20T10:20:36.037Z,1028.3
2023-03-20T10:22:35.828Z,1028.3
2023-03-20T10:24:35.822Z,1028.3
2023-03-20T10:26:35.820Z,1028.3
2023-03-20T10:28:35.845Z,1028.3
2023-03-20T10:30:36.114Z,1028.3
2023-03-20T10:32:35.864Z,1028.3
2023-03-20T10:34:35.819Z,1028.3
2023-03-20T10:36:35.800Z,1028.3
2023-03-20T10:38:35.805Z,1028.4
2023-03-20T10:40:36.045Z,1028.4
2023-03-20T10:42:35.807Z,1028.3
2023-03-20T10:44:35.823Z,1028.3
2023-03-20T10:46:35.890Z,1028.3
2023-03-20T10:48:35.784Z,1028.4
2023-03-20T10:50:36.026Z,1028.4
2023-03-20T10:52:35.840Z,1028.4
2023-03-20T10:54:35.808Z,1028.4
2023-03-20T10:56:35.823Z,1028.5
2023-03-20T10:58:35.772Z,1028.5
2023-03-20T11:00:35.999Z,1028.5
2023-03-20T11:02:35.786Z,1028.6
2023-03-20T11:04:35.836Z,1028.6
2023-03-20T11:06:35.806Z,1028.7
2023-03-20T11:08:35.762Z,1028.7
2023-03-20T11:10:36.013Z,1028.7
2023-03-20T11:12:35.777Z,1028.7
2023-03-20T11:14:36.572Z,1028.7
2023-03-20T11:16:35.881Z,1028.8
2023-03-20T11:18:35.788Z,1028.8
2023-03-20T11:20:36.071Z,1028.9
2023-03-20T11:22:35.845Z,1028.9
2023-03-20T11:24:35.866Z,1028.8
2023-03-20T11:26:35.873Z,1028.9
2023-03-20T11:28:35.750Z,1028.9
2023-03-20T11:30:35.949Z,1028.9
2023-03-20T11:32:35.839Z,1028.9
2023-03-20T11:34:35.754Z,1028.8
2023-03-20T11:36:35.783Z,1028.9
2023-03-20T11:38:35.789Z,1028.9
2023-03-20T11:40:35.963Z,1028.9
2023-03-20T11:42:35.730Z,1028.9
2023-03-20T11:44:35.774Z,1028.9
2023-03-20T11:46:35.736Z,1028.9
2023-03-20T11:48:35.725Z,1029
2023-03-20T11:50:35.885Z,1029.1
2023-03-20T11:52:35.742Z,1029.1
2023-03-20T11:54:35.729Z,1029.2
2023-03-20T11:56:35.713Z,1029.2
2023-03-20T11:58:35.712Z,1029.2
2023-03-20T12:00:36.061Z,1029.3
2023-03-20T12:02:35.826Z,1029.3
2023-03-20T12:04:35.705Z,1029.3
2023-03-20T12:06:35.714Z,1029.3
2023-03-20T12:08:35.732Z,1029.3
2023-03-20T12:10:35.945Z,1029.4
2023-03-20T12:12:35.698Z,1029.4
2023-03-20T12:14:35.714Z,1029.5
2023-03-20T12:16:35.693Z,1029.5
2023-03-20T12:18:35.686Z,1029.5
2023-03-20T12:20:35.868Z,1029.5
2023-03-20T12:22:35.720Z,1029.5
2023-03-20T12:24:35.711Z,1029.5
2023-03-20T12:26:35.753Z,1029.6
2023-03-20T12:28:35.675Z,1029.6
2023-03-20T12:30:35.909Z,1029.6
2023-03-20T12:32:35.732Z,1029.6
2023-03-20T12:34:35.662Z,1029.6
2023-03-20T12:36:35.673Z,1029.7
2023-03-20T12:38:35.687Z,1029.7
2023-03-20T12:40:35.857Z,1029.7
2023-03-20T12:42:35.677Z,1029.8
2023-03-20T12:44:35.645Z,1029.8
2023-03-20T12:46:35.694Z,1029.8
2023-03-20T12:48:35.742Z,1029.9
2023-03-20T12:50:35.983Z,1029.9
2023-03-20T12:52:35.627Z,1030
2023-03-20T12:54:35.640Z,1030
2023-03-20T12:56:35.657Z,1030
2023-03-20T12:58:35.656Z,1030
2023-03-20T13:00:35.968Z,1030
2023-03-20T13:02:35.788Z,1030.1
2023-03-20T13:04:35.641Z,1030
2023-03-20T13:06:35.615Z,1030
2023-03-20T13:08:35.635Z,1030
2023-03-20T13:10:35.829Z,1030
2023-03-20T13:12:35.637Z,1030
2023-03-20T13:14:35.646Z,1030
2023-03-20T13:16:35.674Z,1030.1
2023-03-20T13:18:35.601Z,1030.1
2023-03-20T13:20:35.832Z,1030.1
2023-03-20T13:22:35.616Z,1030.1
2023-03-20T13:24:35.640Z,1030.1
2023-03-20T13:26:35.582Z,1030.1
2023-03-20T13:28:35.636Z,1030.2
2023-03-20T13:30:35.882Z,1030.2
2023-03-20T13:32:35.682Z,1030.2
2023-03-20T13:34:35.596Z,1030.2
2023-03-20T13:36:35.626Z,1030.2
2023-03-20T13:38:35.603Z,1030.2
2023-03-20T13:40:35.902Z,1030.2
2023-03-20T13:42:35.594Z,1030.2
2023-03-20T13:44:35.550Z,1030.3
2023-03-20T13:46:35.616Z,1030.3
2023-03-20T13:48:35.563Z,1030.3
2023-03-20T13:50:35.891Z,1030.2
2023-03-20T13:52:35.562Z,1030.2
2023-03-20T13:54:35.575Z,1030.2
2023-03-20T13:56:35.595Z,1030.2
2023-03-20T13:58:35.559Z,1030.2
2023-03-20T14:00:35.862Z,1030.2
2023-03-20T14:02:35.559Z,1030.1
2023-03-20T14:04:35.699Z,1030.1
2023-03-20T14:06:35.620Z,1030.1
2023-03-20T14:08:35.609Z,1030.1
2023-03-20T14:10:35.905Z,1030.1
2023-03-20T14:12:35.527Z,1030.1
2023-03-20T14:14:35.552Z,1030
2023-03-20T14:16:35.550Z,1030
2023-03-20T14:18:35.540Z,1030
2023-03-20T14:20:35.895Z,1030
2023-03-20T14:22:35.547Z,1029.9
2023-03-20T14:24:35.541Z,1029.9
2023-03-20T14:26:35.579Z,1029.9
2023-03-20T14:28:35.533Z,1029.9
2023-03-20T14:30:35.684Z,1030
2023-03-20T14:32:35.546Z,1030
2023-03-20T14:34:36.964Z,1029.9
2023-03-20T14:36:35.556Z,1030
2023-03-20T14:38:35.496Z,1030
2023-03-20T14:40:35.876Z,1030
2023-03-20T14:42:35.519Z,1030
2023-03-20T14:44:35.495Z,1030
2023-03-20T14:46:35.547Z,1030
2023-03-20T14:48:35.522Z,1030
2023-03-20T14:50:35.856Z,1030
2023-03-20T14:52:35.501Z,1030
2023-03-20T14:54:35.476Z,1029.8
2023-03-20T14:56:35.601Z,1029.9
2023-03-20T14:58:35.469Z,1029.9
2023-03-20T15:00:35.696Z,1029.8
2023-03-20T15:02:35.480Z,1029.8
2023-03-20T15:04:35.471Z,1029.8
2023-03-20T15:06:35.600Z,1029.9
2023-03-20T15:08:35.451Z,1029.9
2023-03-20T15:10:35.742Z,1029.9
2023-03-20T15:12:35.477Z,1029.8
2023-03-20T15:14:35.467Z,1029.8
2023-03-20T15:16:35.499Z,1029.8
2023-03-20T15:18:35.439Z,1029.8
2023-03-20T15:20:35.708Z,1029.8
2023-03-20T15:22:35.491Z,1029.8
2023-03-20T15:24:35.449Z,1029.8
2023-03-20T15:26:35.639Z,1029.8
2023-03-20T15:28:35.479Z,1029.8
2023-03-20T15:30:35.595Z,1029.8
2023-03-20T15:32:35.495Z,1029.9
2023-03-20T15:34:35.441Z,1029.9
2023-03-20T15:36:35.436Z,1029.9
2023-03-20T15:38:35.450Z,1029.9
2023-03-20T15:40:49.528Z,1029.8
2023-03-20T15:42:35.499Z,1029.8
2023-03-20T15:44:35.464Z,1029.7
2023-03-20T15:46:35.427Z,1029.7
2023-03-20T15:48:35.424Z,1029.7
2023-03-20T15:50:35.690Z,1029.6
2023-03-20T15:52:35.477Z,1029.6
2023-03-20T15:54:35.416Z,1029.6
2023-03-20T15:56:35.406Z,1029.7
2023-03-20T15:58:35.426Z,1029.7
2023-03-20T16:00:35.647Z,1029.6
2023-03-20T16:02:35.463Z,1029.6
2023-03-20T16:04:35.442Z,1029.6
2023-03-20T16:06:35.399Z,1029.6
2023-03-20T16:08:35.374Z,1029.6
2023-03-20T16:10:35.834Z,1029.6
2023-03-20T16:12:35.459Z,1029.5
2023-03-20T16:14:35.499Z,1029.6
2023-03-20T16:16:35.398Z,1029.5
2023-03-20T16:18:35.392Z,1029.5
2023-03-20T16:20:35.677Z,1029.5
2023-03-20T16:22:35.372Z,1029.5
2023-03-20T16:24:35.369Z,1029.5
2023-03-20T16:26:35.436Z,1029.5
2023-03-20T16:28:35.364Z,1029.5
2023-03-20T16:30:35.568Z,1029.4
2023-03-20T16:32:35.474Z,1029.4
2023-03-20T16:34:35.357Z,1029.4
2023-03-20T16:36:35.366Z,1029.4
2023-03-20T16:38:35.363Z,1029.3
2023-03-20T16:40:35.640Z,1029.3
2023-03-20T16:42:35.349Z,1029.4
2023-03-20T16:44:35.364Z,1029.3
2023-03-20T16:46:35.486Z,1029.2
2023-03-20T16:48:35.339Z,1029.3
2023-03-20T16:50:35.594Z,1029.2
2023-03-20T16:52:35.331Z,1029.3
2023-03-20T16:54:35.328Z,1029.2
2023-03-20T16:56:35.342Z,1029.3
2023-03-20T16:58:35.351Z,1029.2
2023-03-20T17:00:35.643Z,1029.2
2023-03-20T17:02:35.319Z,1029.2
2023-03-20T17:04:35.389Z,1029.1
2023-03-20T17:06:35.316Z,1029.1
2023-03-20T17:08:35.328Z,1029.2
2023-03-20T17:10:35.595Z,1029.3
2023-03-20T17:12:35.394Z,1029.3
2023-03-20T17:14:35.346Z,1029.4
2023-03-20T17:16:35.317Z,1029.3
2023-03-20T17:18:35.363Z,1029.3
2023-03-20T17:20:35.809Z,1029.3
2023-03-20T17:22:35.293Z,1029.3
2023-03-20T17:24:35.314Z,1029.3
2023-03-20T17:26:35.295Z,1029.3
2023-03-20T17:28:35.392Z,1029.3
2023-03-20T17:30:35.650Z,1029.3
2023-03-20T17:32:35.265Z,1029.3
2023-03-20T17:34:35.307Z,1029.3
2023-03-20T17:36:35.345Z,1029.4
2023-03-20T17:38:35.277Z,1029.2
2023-03-20T17:40:35.537Z,1029.1
2023-03-20T17:42:35.264Z,1029.1
2023-03-20T17:44:35.258Z,1029
2023-03-20T17:46:46.196Z,1029
2023-03-20T17:48:35.269Z,1028.9
2023-03-20T17:50:35.456Z,1028.8
2023-03-20T17:52:35.254Z,1028.7
2023-03-20T17:54:35.241Z,1028.7
2023-03-20T17:56:35.273Z,1028.7
2023-03-20T17:58:35.225Z,1028.7
2023-03-20T18:00:35.550Z,1028.6
2023-03-20T18:02:35.267Z,1028.5
2023-03-20T18:04:35.324Z,1028.3
2023-03-20T18:06:35.229Z,1028.1
2023-03-20T18:08:35.216Z,1028
2023-03-20T18:10:35.857Z,1028.1
2023-03-20T18:12:35.259Z,1028.3
2023-03-20T18:14:35.259Z,1028.3
2023-03-20T18:16:35.230Z,1028.3
2023-03-20T18:18:35.256Z,1028.4
2023-03-20T18:20:35.460Z,1028.4
2023-03-20T18:22:35.226Z,1028.4
2023-03-20T18:24:35.210Z,1028.5
2023-03-20T18:26:35.231Z,1028.6
2023-03-20T18:28:35.205Z,1028.8
2023-03-20T18:30:35.448Z,1028.8
2023-03-20T18:32:35.343Z,1028.8
2023-03-20T18:34:35.213Z,1028.7
2023-03-20T18:36:35.193Z,1028.7
2023-03-20T18:38:35.221Z,1028.6
2023-03-20T18:40:35.656Z,1028.4
2023-03-20T18:42:35.212Z,1028.4
2023-03-20T18:44:35.181Z,1028.4
2023-03-20T18:46:35.205Z,1028.3
2023-03-20T18:48:35.215Z,1028.1
2023-03-20T18:50:37.298Z,1028.1
2023-03-20T18:52:35.226Z,1028.3
2023-03-20T18:54:35.175Z,1028.3
2023-03-20T18:56:35.191Z,1028.2
2023-03-20T18:58:35.230Z,1028
2023-03-20T19:00:35.386Z,1028
2023-03-20T19:02:35.163Z,1028
2023-03-20T19:04:35.181Z,1028
2023-03-20T19:06:35.157Z,1028
2023-03-20T19:08:35.191Z,1028.1
2023-03-20T19:10:35.353Z,1028.2
2023-03-20T19:12:35.175Z,1028.3
2023-03-20T19:14:36.107Z,1028.3
2023-03-20T19:16:35.336Z,1028.3
2023-03-20T19:18:36.432Z,1028.1
2023-03-20T19:20:35.460Z,1028.2
2023-03-20T19:22:35.150Z,1028.1
2023-03-20T19:24:35.165Z,1028.1
2023-03-20T19:26:35.155Z,1028.2
2023-03-20T19:28:40.158Z,1028.2
2023-03-20T19:30:35.406Z,1028.1
2023-03-20T19:32:35.193Z,1028.1
2023-03-20T19:35:15.199Z,1028.2
2023-03-20T19:36:35.179Z,1028.1
2023-03-20T19:38:35.155Z,1028
2023-03-20T19:40:35.236Z,1028.1
2023-03-20T19:42:56.895Z,1028.1
2023-03-20T19:44:35.092Z,1028
2023-03-20T19:46:40.009Z,1028
2023-03-20T19:48:49.948Z,1027.8
2023-03-20T19:50:35.133Z,1027.8
2023-03-20T19:52:35.129Z,1027.9
2023-03-20T19:54:35.100Z,1028
2023-03-20T19:56:35.096Z,1028
2023-03-20T19:58:35.159Z,1028
2023-03-20T20:00:57.920Z,1028
2023-03-20T20:02:35.253Z,1028
2023-03-20T20:04:35.124Z,1028
2023-03-20T20:06:35.109Z,1027.9
2023-03-20T20:08:46.777Z,1027.8
2023-03-20T20:10:35.344Z,1027.7
2023-03-20T20:12:35.083Z,1027.8
2023-03-20T20:14:35.342Z,1027.9
2023-03-20T20:16:35.338Z,1027.8
2023-03-20T20:18:35.075Z,1027.9
2023-03-20T20:20:35.258Z,1027.8
2023-03-20T20:22:35.059Z,1027.8
2023-03-20T20:24:35.068Z,1027.7
2023-03-20T20:26:39.552Z,1027.7
2023-03-20T20:28:35.062Z,1027.8
2023-03-20T20:30:35.398Z,1027.8
2023-03-20T20:32:35.790Z,1027.7
2023-03-20T20:37:20.997Z,1027.7
2023-03-20T20:38:50.305Z,1027.7
2023-03-20T20:40:35.063Z,1027.7
2023-03-20T20:42:35.068Z,1027.8
2023-03-20T20:44:35.053Z,1027.7
2023-03-20T20:46:35.077Z,1027.8
2023-03-20T20:48:35.064Z,1027.8
2023-03-20T20:50:35.079Z,1027.8
2023-03-20T20:52:35.031Z,1027.8
2023-03-20T20:54:35.055Z,1027.7
2023-03-20T20:56:35.061Z,1027.7
2023-03-20T20:58:35.045Z,1027.7
2023-03-20T21:00:48.872Z,1027.7
2023-03-20T21:02:35.023Z,1027.6
2023-03-20T21:04:35.078Z,1027.6
2023-03-20T21:07:03.736Z,1027.5
2023-03-20T21:08:35.089Z,1027.5
2023-03-20T21:10:35.021Z,1027.5
2023-03-20T21:12:40.300Z,1027.4
2023-03-20T21:14:35.038Z,1027.4
2023-03-20T21:16:35.076Z,1027.4
2023-03-20T21:18:35.000Z,1027.4
2023-03-20T21:20:35.013Z,1027.4
2023-03-20T21:22:35.008Z,1027.4
2023-03-20T21:24:35.219Z,1027.5
2023-03-20T21:26:34.980Z,1027.6
2023-03-20T21:28:34.987Z,1027.6
2023-03-20T21:30:35.045Z,1027.6
2023-03-20T21:32:35.070Z,1027.6
2023-03-20T21:34:34.992Z,1027.6
2023-03-20T21:36:35.222Z,1027.6
2023-03-20T21:39:05.749Z,1027.6
2023-03-20T21:40:34.975Z,1027.6
2023-03-20T21:42:34.990Z,1027.6
2023-03-20T21:45:13.185Z,1027.6
2023-03-20T21:49:31.713Z,1027.7
2023-03-20T21:51:03.462Z,1027.7
2023-03-20T21:55:35.107Z,1027.7
2023-03-20T21:57:10.476Z,1027.7
2023-03-20T22:02:36.087Z,1027.8
2023-03-20T22:05:22.087Z,1027.8
2023-03-20T22:21:29.953Z,1028
2023-03-20T22:23:21.250Z,1028
2023-03-20T22:25:16.545Z,1028
2023-03-20T22:27:40.403Z,1028
2023-03-20T22:29:21.133Z,1028
2023-03-20T22:31:26.524Z,1028
2023-03-20T22:33:11.460Z,1028
2023-03-20T22:35:31.343Z,1028.1
2023-03-20T22:39:10.680Z,1028.1
2023-03-20T22:43:05.773Z,1028.1
2023-03-20T22:44:58.779Z,1028.1
2023-03-20T22:46:45.107Z,1028.1
2023-03-20T22:48:34.943Z,1028.2
2023-03-20T22:50:35.024Z,1028.2
2023-03-20T22:52:47.970Z,1028.2
2023-03-20T22:54:34.872Z,1028.3
2023-03-20T22:56:34.928Z,1028.3
2023-03-20T22:58:34.876Z,1028.3
2023-03-20T23:00:36.559Z,1028.3
2023-03-20T23:02:34.897Z,1028.3
2023-03-20T23:04:36.463Z,1028.3
2023-03-20T23:06:34.925Z,1028.3
2023-03-20T23:08:39.251Z,1028.4
2023-03-20T23:10:35.200Z,1028.5
2023-03-20T23:12:34.886Z,1028.5
2023-03-20T23:14:45.300Z,1028.5
2023-03-20T23:16:34.931Z,1028.6
2023-03-20T23:18:34.870Z,1028.5
2023-03-20T23:20:35.124Z,1028.5
2023-03-20T23:22:34.836Z,1028.5
2023-03-20T23:24:34.856Z,1028.5
2023-03-20T23:26:34.858Z,1028.5
2023-03-20T23:28:34.842Z,1028.6
2023-03-20T23:30:44.169Z,1028.6
2023-03-20T23:32:34.845Z,1028.6
2023-03-20T23:34:34.838Z,1028.6
2023-03-20T23:36:36.721Z,1028.6
2023-03-20T23:38:34.865Z,1028.5
2023-03-20T23:40:35.085Z,1028.5
2023-03-20T23:42:34.838Z,1028.6
2023-03-20T23:44:34.977Z,1028.6
2023-03-20T23:46:34.820Z,1028.6
2023-03-20T23:48:34.890Z,1028.5
2023-03-20T23:50:49.882Z,1028.6
2023-03-20T23:52:35.134Z,1028.6
2023-03-20T23:54:34.842Z,1028.6
2023-03-20T23:56:34.806Z,1028.6
2023-03-20T23:58:36.053Z,1028.6
